Terminal Aerodrome Forecast
Issued by NWS Sterling, VA

Current Version | Previous Version | Text Only | Print | Product List | Glossary Off
Versions: 1 2 3 4 5 6 7 8 9 10 11 12 13 14 15 16 17 18 19 20 21 22

748
FTUS41 KLWX 222320
TAFDCA
TAF
KDCA 222320Z 2300/2324 19005KT P6SM BKN130
     FM230800 19004KT 5SM BR OVC015
     FM231400 20005KT P6SM BKN060
     FM231500 20006KT P6SM SCT060=

USA.gov is the U.S. government's official web portal to all federal, state and local government web resources and services.